Hefei, China
Current Conditions -  °F | °C
As of 11:00 PM on Friday 28 Nov 2014 (Local Time) from ZSOF Reporting Station
Light Rain Light Rain  
Wind Chill: 43°   Ceiling: Unl
Heat Index: 46°   Visibility: 1.2mi
Dew Point: 45°   Wind: 7mph
Humidity: 93%   Direction: 90°E
Pressure: 30.15"   Gusts: NA
Location:  31.85°N, 117.28°E
Report Text: ZSOF 281500Z 09003MPS 2000 -RA BR NSC 08/07 Q1021 NOSIG
Loading
Personal Weather Stations






























Interactive Weather Map New forecast layout! Learn more

10-Day Weather Forecast

Advertisements
Track Severe Weather on mobile